createdAt,value
2023-02-03T02:04:15.683Z,86.34
2023-02-03T02:06:48.218Z,86.56
2023-02-03T02:09:16.504Z,86.31
2023-02-03T02:11:45.927Z,86.65
2023-02-03T02:14:14.191Z,86.83
2023-02-03T02:16:51.579Z,86.90
2023-02-03T02:19:47.284Z,86.97
2023-02-03T02:22:20.922Z,86.43
2023-02-03T02:25:07.795Z,86.46
2023-02-03T02:27:47.319Z,86.32
2023-02-03T02:30:33.989Z,86.35
2023-02-03T02:33:18.707Z,86.38
2023-02-03T02:36:08.971Z,86.34
2023-02-03T02:39:10.004Z,86.55
2023-02-03T02:42:18.290Z,86.06
2023-02-03T02:44:50.256Z,86.34
2023-02-03T02:47:22.571Z,85.82
2023-02-03T02:49:57.047Z,86.28
2023-02-03T02:52:25.195Z,86.11
2023-02-03T02:54:54.836Z,85.95
2023-02-03T02:57:24.358Z,86.19
2023-02-03T02:59:53.655Z,86.41
2023-02-03T03:02:27.358Z,86.34
2023-02-03T03:04:56.054Z,86.40
2023-02-03T03:07:24.843Z,86.69
2023-02-03T03:10:05.558Z,86.16
2023-02-03T03:12:38.343Z,86.00
2023-02-03T03:15:11.939Z,85.69
2023-02-03T03:17:51.965Z,85.91
2023-02-03T03:20:22.999Z,86.01
2023-02-03T03:23:03.755Z,86.18
2023-02-03T03:25:36.695Z,86.36
2023-02-03T03:28:08.924Z,86.37
2023-02-03T03:30:37.641Z,86.44
2023-02-03T03:33:06.506Z,86.77
2023-02-03T03:35:50.669Z,86.55
2023-02-03T03:38:43.582Z,86.83
2023-02-03T03:41:37.055Z,86.97
2023-02-03T03:44:06.056Z,87.51
2023-02-03T03:46:40.207Z,87.76
2023-02-03T03:49:09.760Z,87.93
2023-02-03T03:51:47.450Z,88.11
2023-02-03T03:54:17.269Z,88.60
2023-02-03T03:56:58.462Z,88.85
2023-02-03T03:59:28.793Z,88.74
2023-02-03T04:01:57.018Z,88.92
2023-02-03T04:04:25.308Z,88.81
2023-02-03T04:06:54.988Z,89.01
2023-02-03T04:09:23.120Z,89.01
2023-02-03T04:12:03.707Z,89.17
2023-02-03T04:14:38.914Z,89.10
2023-02-03T04:17:07.201Z,89.26
2023-02-03T04:19:35.565Z,89.17
2023-02-03T04:22:04.580Z,88.98
2023-02-03T04:24:33.472Z,88.99
2023-02-03T04:27:03.719Z,88.74
2023-02-03T04:29:34.856Z,88.79
2023-02-03T04:32:03.494Z,88.30
2023-02-03T04:34:32.207Z,88.15
2023-02-03T04:37:00.397Z,88.32
2023-02-03T04:39:28.785Z,88.21
2023-02-03T04:41:57.870Z,88.27
2023-02-03T04:44:26.499Z,88.46
2023-02-03T04:46:54.631Z,88.58
2023-02-03T04:49:22.970Z,88.53
2023-02-03T04:51:51.624Z,88.48
2023-02-03T04:54:19.663Z,88.51
2023-02-03T04:56:47.771Z,88.65
2023-02-03T04:59:15.873Z,88.99
2023-02-03T05:01:44.551Z,88.97
2023-02-03T05:04:12.727Z,89.49
2023-02-03T05:06:43.458Z,89.87
2023-02-03T05:09:11.634Z,90.14
2023-02-03T05:11:40.221Z,90.13
2023-02-03T05:14:08.413Z,90.16
2023-02-03T05:16:36.659Z,90.37
2023-02-03T05:19:05.773Z,90.63
2023-02-03T05:21:33.960Z,90.69
2023-02-03T05:24:03.989Z,90.76
2023-02-03T05:26:32.264Z,90.68
2023-02-03T05:29:01.111Z,90.89
2023-02-03T05:31:29.566Z,90.77
2023-02-03T05:33:58.248Z,90.81
2023-02-03T05:36:26.612Z,91.00
2023-02-03T05:38:54.896Z,91.10
2023-02-03T05:41:41.695Z,90.59
2023-02-03T05:44:10.191Z,90.98
2023-02-03T05:46:38.455Z,90.70
2023-02-03T05:49:06.847Z,90.22
2023-02-03T05:51:35.108Z,90.15
2023-02-03T05:54:03.408Z,89.83
2023-02-03T05:56:31.877Z,90.04
2023-02-03T05:59:00.073Z,89.87
2023-02-03T06:01:29.182Z,89.80
2023-02-03T06:03:57.600Z,89.86
2023-02-03T06:06:27.367Z,89.93
2023-02-03T06:08:57.392Z,90.00
2023-02-03T06:11:27.109Z,90.02
2023-02-03T06:13:58.737Z,90.31
2023-02-03T06:16:27.401Z,90.39
2023-02-03T06:18:59.747Z,90.32
